Stephen R Warden — WDC6523 — position and weather

sailwx.info

Track history (hours):
 
Tides and Currents Weather Stations Pressure Air Temp Water Temp Dewpoint Dewpoint Depression Visibility Wind Speed Wind Dir Waves Ship Positions

Stephen R Warden

More information available from US FCC via Universal Licensing System and Coast Guard Vessel Documentation Center.

Last reported at 2014-Sep-03 04:33 UTC. Time now 2014-Sep-03 05:01 UTC.
Position N 30°03' W 090°33'.

Length 37 m; draft 3 m.

Type: Towing. MMSI: 367057460.

Date/timePositionNaut miles runAvg speedWind from/ knotsBaromVisibWave heightAir tempDewpointWater temp
2014-Sep-03 04:33N 30°03' W 090°33'3 3.1
2014-Sep-03 03:33N 30°02' W 090°36'6 6.3
2014-Sep-03 02:33N 30°01' W 090°44'1 0.6
2014-Sep-03 01:33N 30°01' W 090°44'1 1.3
2014-Sep-03 00:33N 30°01' W 090°46'0 0.0
2014-Sep-02 23:33N 30°01' W 090°46'0 0.0
2014-Sep-02 22:33N 30°01' W 090°46'0 0.0
2014-Sep-02 12:33N 30°01' W 090°46'0 0.0
2014-Sep-02 11:33N 30°01' W 090°46'0 0.0
2014-Sep-02 10:33N 30°01' W 090°46'0 0.0
2014-Sep-02 09:33N 30°01' W 090°46'0 0.0
2014-Sep-02 08:33N 30°01' W 090°46'0 0.0
2014-Sep-02 07:33N 30°01' W 090°46'0 0.0
2014-Sep-02 06:33N 30°01' W 090°46'0 0.0
2014-Sep-02 05:33N 30°01' W 090°46'0 0.0
2014-Sep-02 04:33N 30°01' W 090°46'0 0.0
2014-Sep-02 03:33N 30°01' W 090°46'0 0.0
2014-Sep-02 02:33N 30°01' W 090°46'0 0.0
2014-Sep-02 01:33N 30°01' W 090°46'0 0.0
2014-Sep-02 00:33N 30°01' W 090°46'0 0.0
2014-Sep-01 23:33N 30°01' W 090°46'0 0.0
2014-Sep-01 22:33N 30°01' W 090°46'0 0.0
2014-Sep-01 21:33N 30°01' W 090°46'0 0.0
2014-Sep-01 20:33N 30°01' W 090°46'0 0.0
2014-Sep-01 19:33N 30°01' W 090°46'0 0.0
2014-Sep-01 18:32N 30°01' W 090°46'0 0.0
2014-Sep-01 17:33N 30°01' W 090°46'4 2.1
2014-Sep-01 15:25N 30°02' W 090°41'4 4.8
2014-Sep-01 14:33N 30°02' W 090°36'5 5.3
2014-Sep-01 13:33N 30°03' W 090°30'5 4.6
2014-Sep-01 12:33N 29°60' W 090°26'5 4.6
2014-Sep-01 11:32N 29°57' W 090°23'9 4.2
2014-Sep-01 09:31N 29°56' W 090°13'4 0.1
2014-Aug-31 08:20N 29°58' W 090°16'5 6.9
2014-Aug-31 07:33N 29°56' W 090°21'7 6.5
2014-Aug-31 06:33N 29°60' W 090°28'6 5.8
2014-Aug-31 05:33N 30°03' W 090°33'6 5.9
2014-Aug-31 04:33N 30°03' W 090°40'5 4.8
2014-Aug-31 03:33N 30°01' W 090°45'0 0.0
2014-Aug-31 02:33N 30°01' W 090°45'0 0.0
2014-Aug-31 01:33N 30°01' W 090°45'0 0.0
2014-Aug-31 00:33N 30°01' W 090°45'1 1.0
2014-Aug-30 23:33N 30°01' W 090°44'0 0.0
2014-Aug-30 22:33N 30°01' W 090°44'0 0.0
2014-Aug-30 21:33N 30°01' W 090°44'2 1.6
2014-Aug-30 20:33N 30°01' W 090°46'0 0.0
2014-Aug-30 19:33N 30°01' W 090°46'0 0.0
2014-Aug-30 18:33N 30°01' W 090°46'0 0.0
2014-Aug-30 17:33N 30°01' W 090°46'0 0.0
2014-Aug-30 16:33N 30°01' W 090°46'0 0.0
2014-Aug-30 15:33N 30°01' W 090°46'0 0.0
2014-Aug-30 14:33N 30°01' W 090°46'0 0.0
2014-Aug-30 13:33N 30°01' W 090°46'0 0.0
2014-Aug-30 12:13N 30°01' W 090°46'0 0.0
2014-Aug-30 11:33N 30°01' W 090°46'1 1.3
2014-Aug-30 10:33N 30°01' W 090°44'0 0.0
2014-Aug-30 09:33N 30°01' W 090°44'3 3.4
2014-Aug-30 08:33N 30°02' W 090°41'4 4.3
2014-Aug-30 07:33N 30°03' W 090°36'5 5.0
2014-Aug-30 06:33N 30°03' W 090°30'4 4.3
2014-Aug-30 05:33N 29°60' W 090°27'5 4.7
2014-Aug-30 04:33N 29°57' W 090°23'6 4.7
2014-Aug-30 03:14N 29°58' W 090°16'8 1.9
2014-Aug-29 23:06N 29°55' W 090°08'2 0.1
2014-Aug-29 07:33N 29°55' W 090°06'13 1.5
2014-Aug-28 22:30N 29°56' W 090°21'11 3.5
2014-Aug-28 19:26N 30°03' W 090°31'14 0.9
2014-Aug-28 04:06N 30°01' W 090°46'3 5.2
2014-Aug-28 03:33N 29°59' W 090°49'5 3.9
2014-Aug-28 02:09N 30°04' W 090°51'0 0.0
2014-Aug-28 00:26N 30°04' W 090°51'0 0.0
2014-Aug-27 22:23N 30°04' W 090°51'0 0.0
2014-Aug-27 11:23N 30°04' W 090°51'0 0.0
2014-Aug-27 09:17N 30°04' W 090°51'4 1.3
2014-Aug-27 06:10N 30°00' W 090°50'2 2.9
2014-Aug-27 05:33N 29°60' W 090°48'4 3.6
2014-Aug-27 04:33N 30°01' W 090°44'0 0.0
2014-Aug-27 03:33N 30°01' W 090°44'0 0.0
2014-Aug-27 02:33N 30°01' W 090°44'0 0.0
2014-Aug-27 01:33N 30°01' W 090°44'0 0.0
2014-Aug-27 00:33N 30°01' W 090°44'0 0.0
2014-Aug-26 23:33N 30°01' W 090°44'0 0.1
2014-Aug-26 22:33N 30°01' W 090°44'9 3.0
2014-Aug-26 19:33N 30°03' W 090°34'3 2.7
2014-Aug-26 18:31N 30°03' W 090°31'0 0.0
2014-Aug-26 17:33N 30°03' W 090°31'0 0.0
2014-Aug-26 16:33N 30°03' W 090°31'0 0.0
2014-Aug-26 15:33N 30°03' W 090°31'0 0.0
2014-Aug-26 14:33N 30°03' W 090°31'3 0.2
2014-Aug-26 00:20N 30°00' W 090°28'4 5.0
2014-Aug-25 23:33N 30°03' W 090°32'11 1.0
2014-Aug-25 12:33N 30°01' W 090°45'1 0.7
2014-Aug-25 11:33N 30°01' W 090°44'1 0.5
2014-Aug-25 10:33N 30°01' W 090°43'4 4.1
2014-Aug-25 09:33N 30°03' W 090°39'4 3.5
2014-Aug-25 08:33N 30°03' W 090°35'4 4.1
2014-Aug-25 07:33N 30°03' W 090°31'3 3.2
2014-Aug-25 06:33N 30°00' W 090°28'4 4.0
2014-Aug-25 05:33N 29°59' W 090°24'4 3.9
2014-Aug-25 04:33N 29°56' W 090°21'5 0.2
2014-Aug-24 07:06N 29°58' W 090°16'4 7.2
2014-Aug-24 06:33N 29°56' W 090°20'7 6.6
2014-Aug-24 05:33N 29°60' W 090°26'  
Track history (hours):
 
Tides and Currents Weather Stations Pressure Air Temp Water Temp Dewpoint Dewpoint Depression Visibility Wind Speed Wind Dir Waves Ship Positions

Stephen R Warden

More information available from US FCC via Universal Licensing System and Coast Guard Vessel Documentation Center.

Last reported at 2014-Sep-03 04:33 UTC. Time now 2014-Sep-03 05:01 UTC.
Position N 30°03' W 090°33'.

Length 37 m; draft 3 m.

Type: Towing. MMSI: 367057460.

Date/timePositionNaut miles runAvg speedWind from/ knotsBaromVisibWave heightAir tempDewpointWater temp
2014-Sep-03 04:33N 30°03' W 090°33'3 3.1
2014-Sep-03 03:33N 30°02' W 090°36'6 6.3
2014-Sep-03 02:33N 30°01' W 090°44'1 0.6
2014-Sep-03 01:33N 30°01' W 090°44'1 1.3
2014-Sep-03 00:33N 30°01' W 090°46'0 0.0
2014-Sep-02 23:33N 30°01' W 090°46'0 0.0
2014-Sep-02 22:33N 30°01' W 090°46'0 0.0
2014-Sep-02 12:33N 30°01' W 090°46'0 0.0
2014-Sep-02 11:33N 30°01' W 090°46'0 0.0
2014-Sep-02 10:33N 30°01' W 090°46'0 0.0
2014-Sep-02 09:33N 30°01' W 090°46'0 0.0
2014-Sep-02 08:33N 30°01' W 090°46'0 0.0
2014-Sep-02 07:33N 30°01' W 090°46'0 0.0
2014-Sep-02 06:33N 30°01' W 090°46'0 0.0
2014-Sep-02 05:33N 30°01' W 090°46'0 0.0
2014-Sep-02 04:33N 30°01' W 090°46'0 0.0
2014-Sep-02 03:33N 30°01' W 090°46'0 0.0
2014-Sep-02 02:33N 30°01' W 090°46'0 0.0
2014-Sep-02 01:33N 30°01' W 090°46'0 0.0
2014-Sep-02 00:33N 30°01' W 090°46'0 0.0
2014-Sep-01 23:33N 30°01' W 090°46'0 0.0
2014-Sep-01 22:33N 30°01' W 090°46'0 0.0
2014-Sep-01 21:33N 30°01' W 090°46'0 0.0
2014-Sep-01 20:33N 30°01' W 090°46'0 0.0
2014-Sep-01 19:33N 30°01' W 090°46'0 0.0
2014-Sep-01 18:32N 30°01' W 090°46'0 0.0
2014-Sep-01 17:33N 30°01' W 090°46'4 2.1
2014-Sep-01 15:25N 30°02' W 090°41'4 4.8
2014-Sep-01 14:33N 30°02' W 090°36'5 5.3
2014-Sep-01 13:33N 30°03' W 090°30'5 4.6
2014-Sep-01 12:33N 29°60' W 090°26'5 4.6
2014-Sep-01 11:32N 29°57' W 090°23'9 4.2
2014-Sep-01 09:31N 29°56' W 090°13'4 0.1
2014-Aug-31 08:20N 29°58' W 090°16'5 6.9
2014-Aug-31 07:33N 29°56' W 090°21'7 6.5
2014-Aug-31 06:33N 29°60' W 090°28'6 5.8
2014-Aug-31 05:33N 30°03' W 090°33'6 5.9
2014-Aug-31 04:33N 30°03' W 090°40'5 4.8
2014-Aug-31 03:33N 30°01' W 090°45'0 0.0
2014-Aug-31 02:33N 30°01' W 090°45'0 0.0
2014-Aug-31 01:33N 30°01' W 090°45'0 0.0
2014-Aug-31 00:33N 30°01' W 090°45'1 1.0
2014-Aug-30 23:33N 30°01' W 090°44'0 0.0
2014-Aug-30 22:33N 30°01' W 090°44'0 0.0
2014-Aug-30 21:33N 30°01' W 090°44'2 1.6
2014-Aug-30 20:33N 30°01' W 090°46'0 0.0
2014-Aug-30 19:33N 30°01' W 090°46'0 0.0
2014-Aug-30 18:33N 30°01' W 090°46'0 0.0
2014-Aug-30 17:33N 30°01' W 090°46'0 0.0
2014-Aug-30 16:33N 30°01' W 090°46'0 0.0
2014-Aug-30 15:33N 30°01' W 090°46'0 0.0
2014-Aug-30 14:33N 30°01' W 090°46'0 0.0
2014-Aug-30 13:33N 30°01' W 090°46'0 0.0
2014-Aug-30 12:13N 30°01' W 090°46'0 0.0
2014-Aug-30 11:33N 30°01' W 090°46'1 1.3
2014-Aug-30 10:33N 30°01' W 090°44'0 0.0
2014-Aug-30 09:33N 30°01' W 090°44'3 3.4
2014-Aug-30 08:33N 30°02' W 090°41'4 4.3
2014-Aug-30 07:33N 30°03' W 090°36'5 5.0
2014-Aug-30 06:33N 30°03' W 090°30'4 4.3
2014-Aug-30 05:33N 29°60' W 090°27'5 4.7
2014-Aug-30 04:33N 29°57' W 090°23'6 4.7
2014-Aug-30 03:14N 29°58' W 090°16'8 1.9
2014-Aug-29 23:06N 29°55' W 090°08'2 0.1
2014-Aug-29 07:33N 29°55' W 090°06'13 1.5
2014-Aug-28 22:30N 29°56' W 090°21'11 3.5
2014-Aug-28 19:26N 30°03' W 090°31'14 0.9
2014-Aug-28 04:06N 30°01' W 090°46'3 5.2
2014-Aug-28 03:33N 29°59' W 090°49'5 3.9
2014-Aug-28 02:09N 30°04' W 090°51'0 0.0
2014-Aug-28 00:26N 30°04' W 090°51'0 0.0
2014-Aug-27 22:23N 30°04' W 090°51'0 0.0
2014-Aug-27 11:23N 30°04' W 090°51'0 0.0
2014-Aug-27 09:17N 30°04' W 090°51'4 1.3
2014-Aug-27 06:10N 30°00' W 090°50'2 2.9
2014-Aug-27 05:33N 29°60' W 090°48'4 3.6
2014-Aug-27 04:33N 30°01' W 090°44'0 0.0
2014-Aug-27 03:33N 30°01' W 090°44'0 0.0
2014-Aug-27 02:33N 30°01' W 090°44'0 0.0
2014-Aug-27 01:33N 30°01' W 090°44'0 0.0
2014-Aug-27 00:33N 30°01' W 090°44'0 0.0
2014-Aug-26 23:33N 30°01' W 090°44'0 0.1
2014-Aug-26 22:33N 30°01' W 090°44'9 3.0
2014-Aug-26 19:33N 30°03' W 090°34'3 2.7
2014-Aug-26 18:31N 30°03' W 090°31'0 0.0
2014-Aug-26 17:33N 30°03' W 090°31'0 0.0
2014-Aug-26 16:33N 30°03' W 090°31'0 0.0
2014-Aug-26 15:33N 30°03' W 090°31'0 0.0
2014-Aug-26 14:33N 30°03' W 090°31'3 0.2
2014-Aug-26 00:20N 30°00' W 090°28'4 5.0
2014-Aug-25 23:33N 30°03' W 090°32'11 1.0
2014-Aug-25 12:33N 30°01' W 090°45'1 0.7
2014-Aug-25 11:33N 30°01' W 090°44'1 0.5
2014-Aug-25 10:33N 30°01' W 090°43'4 4.1
2014-Aug-25 09:33N 30°03' W 090°39'4 3.5
2014-Aug-25 08:33N 30°03' W 090°35'4 4.1
2014-Aug-25 07:33N 30°03' W 090°31'3 3.2
2014-Aug-25 06:33N 30°00' W 090°28'4 4.0
2014-Aug-25 05:33N 29°59' W 090°24'4 3.9
2014-Aug-25 04:33N 29°56' W 090°21'5 0.2
2014-Aug-24 07:06N 29°58' W 090°16'4 7.2
2014-Aug-24 06:33N 29°56' W 090°20'7 6.6
2014-Aug-24 05:33N 29°60' W 090°26'  

Dump ship's entire track history